Peshtigo, Wisconsin
Current Conditions -  °F | °C
As of 6:55 PM on Wednesday 17 Dec 2014 (Local Time) from KMNM Reporting Station
Overcast Overcast  
Wind Chill: 18°   Ceiling: 2200
Heat Index: 27°   Visibility: 10mi
Dew Point: 19°   Wind: 8mph
Humidity: 74%   Direction: 330°NNW
Pressure: 30.19"   Gusts: NA
Location:  45.05°N, 87.75°W
Report Text: KMNM 180055Z AUTO 33007KT 10SM OVC022 M03/M07 A3019 RMK AO1
Loading
Personal Weather Stations






























Interactive Weather Map New forecast layout! Learn more

10-Day Weather Forecast

Advertisements
Track Severe Weather on mobile